Time;durP1;ratioP1;P1;durP2;ratioP2;P2;SDS_P1;SDS_P2;PMS_P1;PMS_P2;Temp;Humidity;BMP_temperature;BMP_pressure;BME280_temperature;BME280_humidity;BME280_pressure;Samples;Min_cycle;Max_cycle;Signal;HPM_P1;HPM_P2
2021/12/18 00:00:14;;;;;;;7.90;6.70;;;14.40;99.90;;;15.21;52.78;103527.94;4929405;28;98026;-50
2021/12/18 00:02:40;;;;;;;10.23;8.43;;;14.40;99.90;;;15.22;52.77;103527.03;4911092;28;97078;-49
2021/12/18 00:05:07;;;;;;;9.73;8.40;;;14.40;99.80;;;15.21;52.72;103526.16;4917291;28;97918;-47
2021/12/18 00:07:34;;;;;;;6.17;5.53;;;14.40;99.90;;;15.22;53.05;103524.38;4904787;28;97579;-50
2021/12/18 00:10:02;;;;;;;4.80;4.30;;;14.40;99.90;;;15.21;52.88;103519.94;4927980;28;97946;-46
2021/12/18 00:12:28;;;;;;;7.97;7.10;;;14.40;99.90;;;15.19;52.88;103519.97;4911908;28;99663;-47
2021/12/18 00:14:54;;;;;;;5.20;4.40;;;14.40;99.90;;;15.23;52.72;103518.16;4915423;28;98087;-46
2021/12/18 00:17:19;;;;;;;15.67;13.87;;;14.50;99.90;;;15.19;52.50;103512.00;4931300;28;98517;-50
2021/12/18 00:19:45;;;;;;;5.00;4.50;;;14.40;99.60;;;15.21;53.19;103511.97;4912219;28;98173;-46
2021/12/18 00:22:11;;;;;;;7.53;6.80;;;14.40;99.90;;;15.14;53.09;103514.66;4935588;28;97015;-47
2021/12/18 00:24:37;;;;;;;5.43;4.53;;;14.40;99.90;;;15.18;53.12;103513.72;4911158;28;97099;-48
2021/12/18 00:27:03;;;;;;;11.53;10.00;;;14.50;99.90;;;15.27;52.66;103501.25;4915794;28;100411;-48
2021/12/18 00:29:29;;;;;;;5.03;4.50;;;14.60;99.90;;;15.31;52.87;103505.63;4930280;28;97580;-46
2021/12/18 00:31:56;;;;;;;6.83;5.90;;;14.70;99.90;;;15.37;52.56;103505.59;4934908;28;116127;-45
2021/12/18 00:34:22;;;;;;;9.53;8.60;;;14.80;99.60;;;15.40;52.50;103516.19;4909910;28;97382;-47
2021/12/18 00:36:48;;;;;;;7.17;6.43;;;14.90;99.50;;;15.41;52.30;103509.97;4915619;28;99115;-46
2021/12/18 00:39:14;;;;;;;4.80;4.40;;;14.70;99.80;;;15.43;52.20;103505.50;4917226;28;97562;-45
2021/12/18 00:42:07;;;;;;;4.97;4.20;;;14.80;99.90;;;15.44;52.48;103501.94;4910463;28;99234;-45
2021/12/18 00:44:32;;;;;;;6.23;5.63;;;14.80;99.90;;;15.43;52.43;103505.50;4912818;28;98076;-48
2021/12/18 00:46:58;;;;;;;21.47;17.73;;;14.70;99.90;;;15.37;50.42;103502.94;4916243;28;97056;-46
2021/12/18 00:49:24;;;;;;;16.37;12.93;;;14.60;98.70;;;15.34;52.52;103506.50;4930466;28;97450;-46
2021/12/18 00:51:51;;;;;;;4.33;3.93;;;14.60;99.90;;;15.33;52.60;103509.16;4913835;28;98338;-48
2021/12/18 00:54:17;;;;;;;4.93;4.43;;;14.60;99.90;;;15.37;52.97;103513.56;4932778;28;97832;-51
2021/12/18 00:56:43;;;;;;;7.13;5.90;;;14.70;99.90;;;15.40;52.78;103513.53;4930767;28;97684;-48
2021/12/18 00:59:09;;;;;;;7.47;6.73;;;14.80;99.90;;;15.38;52.82;103507.34;4932031;28;97677;-49
2021/12/18 01:01:35;;;;;;;4.80;4.40;;;14.70;99.90;;;15.40;52.72;103510.88;4906995;28;100393;-45
2021/12/18 01:04:02;;;;;;;9.07;7.50;;;14.70;99.90;;;15.39;52.59;103511.78;4916011;28;97692;-46
2021/12/18 01:06:28;;;;;;;5.90;5.30;;;14.70;99.60;;;15.44;52.50;103504.59;4910804;28;98267;-45
2021/12/18 01:08:57;;;;;;;12.90;11.37;;;14.80;99.90;;;15.46;52.56;103508.13;4908849;28;99867;-45
2021/12/18 01:16:46;;;;;;;4.83;4.33;;;14.70;99.90;;;15.42;52.61;103506.41;4928420;28;98036;-47
2021/12/18 01:24:41;;;;;;;5.63;4.83;;;14.50;99.90;;;15.32;53.17;103510.06;4928873;28;98097;-47
2021/12/18 01:27:07;;;;;;;4.90;4.40;;;14.50;99.90;;;15.32;53.12;103510.06;4916257;28;97506;-46
2021/12/18 01:29:33;;;;;;;5.70;5.10;;;14.50;99.90;;;15.34;53.03;103508.28;4910719;28;109265;-51
2021/12/18 01:31:59;;;;;;;6.07;4.80;;;14.60;99.90;;;15.36;53.00;103502.06;4905058;28;103599;-50
2021/12/18 01:34:25;;;;;;;11.17;9.73;;;14.60;99.90;;;15.37;52.69;103508.25;4909374;28;98912;-49
2021/12/18 01:36:51;;;;;;;4.67;4.17;;;14.70;99.90;;;15.30;53.01;103511.84;4930878;28;97980;-49
2021/12/18 01:39:16;;;;;;;7.93;5.43;;;14.50;99.90;;;15.30;52.78;103501.22;4916361;28;97588;-51
2021/12/18 01:52:42;;;;;;;4.53;4.13;;;14.70;99.90;;;15.35;53.07;103515.38;4929642;28;100996;-50
2021/12/18 01:55:09;;;;;;;4.37;3.67;;;14.70;99.90;;;15.36;52.87;103514.47;4925829;28;97586;-50
2021/12/18 01:57:36;;;;;;;3.73;3.43;;;14.70;99.90;;;15.37;52.93;103513.56;4904683;28;100122;-48
2021/12/18 02:00:20;;;;;;;9.00;7.93;;;14.70;99.90;;;15.41;52.68;103512.63;4932314;28;99287;-50
2021/12/18 02:02:46;;;;;;;4.77;4.27;;;14.80;99.90;;;15.39;52.50;103509.09;4930213;28;99810;-48
2021/12/18 02:05:12;;;;;;;3.90;3.50;;;14.70;99.90;;;15.43;52.59;103514.38;4909792;28;97369;-50
2021/12/18 02:07:40;;;;;;;4.57;4.10;;;14.80;99.90;;;15.50;52.34;103506.34;4930542;28;99495;-52
2021/12/18 02:10:10;;;;;;;5.47;4.90;;;15.00;99.90;;;15.55;52.20;103508.03;4913146;28;99940;-48
2021/12/18 02:20:58;;;;;;;3.90;3.50;;;15.90;99.30;;;16.19;50.63;103491.25;4928952;28;100372;-46
2021/12/18 02:23:24;;;;;;;4.10;3.70;;;16.10;98.80;;;16.23;50.57;103498.31;4921403;28;97245;-50
2021/12/18 02:25:51;;;;;;;7.30;4.57;;;16.10;97.80;;;16.21;50.39;103494.81;4932981;28;98347;-46
2021/12/18 02:28:23;;;;;;;3.80;3.40;;;16.00;98.00;;;16.20;50.69;103493.03;4932794;28;100431;-51
2021/12/18 02:30:52;;;;;;;7.10;6.40;;;15.90;98.90;;;16.16;50.66;103496.63;4914873;28;100627;-47
2021/12/18 02:33:19;;;;;;;3.27;2.97;;;15.80;98.10;;;16.11;50.72;103477.19;4930795;28;97183;-51
2021/12/18 02:35:48;;;;;;;5.37;4.83;;;15.70;99.50;;;16.08;50.71;103493.22;4933097;28;97271;-44
2021/12/18 02:38:20;;;;;;;18.70;16.00;;;15.70;98.70;;;16.06;50.75;103495.03;4934059;28;97780;-47
2021/12/18 02:43:33;;;;;;;6.97;6.27;;;15.40;98.90;;;15.94;51.11;103495.19;4930486;28;96950;-44
2021/12/18 02:45:59;;;;;;;9.43;8.30;;;15.30;99.50;;;15.83;51.49;103484.66;4917595;28;97300;-45
2021/12/18 02:48:29;;;;;;;5.97;5.20;;;15.20;99.60;;;15.80;51.50;103481.16;4893091;28;96987;-46
2021/12/18 02:50:57;;;;;;;5.13;4.30;;;15.10;99.90;;;15.76;51.61;103478.53;4916987;28;99224;-49
2021/12/18 02:53:24;;;;;;;24.43;19.30;;;15.10;99.90;;;15.66;50.80;103476.91;4911911;28;98582;-48
2021/12/18 02:56:03;;;;;;;9.17;7.63;;;15.00;99.20;;;15.72;51.67;103479.47;4916958;28;97681;-48
2021/12/18 02:58:31;;;;;;;8.93;7.70;;;15.10;99.70;;;15.70;52.10;103480.41;4903291;28;98352;-48
2021/12/18 03:00:59;;;;;;;12.43;10.70;;;15.10;99.90;;;15.65;52.07;103476.94;4925812;28;97872;-47
2021/12/18 03:03:29;;;;;;;5.90;4.77;;;15.00;99.70;;;15.65;52.19;103483.13;4930831;28;96960;-46
2021/12/18 03:06:30;;;;;;;5.00;4.43;;;15.00;99.90;;;15.64;52.21;103484.03;4917697;28;97060;-47
2021/12/18 03:27:16;;;;;;;4.30;3.90;;;15.00;99.90;;;15.63;52.36;103468.97;4936094;28;97612;-47
2021/12/18 03:29:42;;;;;;;4.90;4.40;;;15.00;99.90;;;15.64;52.09;103460.06;4908041;28;99744;-45
2021/12/18 03:32:08;;;;;;;3.70;3.40;;;15.00;99.90;;;15.70;51.99;103469.75;4916567;28;98863;-48
2021/12/18 03:34:34;;;;;;;3.73;3.43;;;15.20;99.90;;;15.75;51.90;103462.56;4903341;28;97450;-48
2021/12/18 03:37:00;;;;;;;4.03;3.63;;;15.30;99.90;;;15.76;51.87;103467.88;4913931;28;96925;-48
2021/12/18 03:39:27;;;;;;;3.80;3.40;;;15.30;99.90;;;15.90;51.56;103467.69;4933875;28;96715;-47
2021/12/18 03:41:53;;;;;;;13.77;12.00;;;15.50;99.90;;;15.98;49.84;103454.28;4934133;28;99139;-46
2021/12/18 03:44:20;;;;;;;4.33;3.63;;;15.70;97.00;;;16.02;51.24;103461.31;4957327;28;97169;-51
2021/12/18 03:46:46;;;;;;;3.53;3.23;;;15.70;99.20;;;16.06;50.90;103455.06;4936828;28;97094;-48
2021/12/18 03:49:12;;;;;;;4.47;3.93;;;15.70;99.50;;;16.13;50.92;103443.41;4936181;28;97028;-46
2021/12/18 03:51:38;;;;;;;5.63;3.83;;;15.90;99.30;;;16.20;50.71;103450.44;4937493;28;97781;-45
2021/12/18 03:54:04;;;;;;;3.60;3.30;;;16.00;98.40;;;16.22;50.59;103448.63;4913804;28;98563;-45
2021/12/18 03:56:31;;;;;;;4.13;3.70;;;16.00;98.60;;;16.24;50.58;103457.47;4945357;28;97134;-45
2021/12/18 03:58:57;;;;;;;3.27;2.97;;;16.00;98.60;;;16.25;50.25;103448.56;4942850;28;97178;-47
2021/12/18 04:01:23;;;;;;;3.50;3.20;;;16.00;98.70;;;16.29;50.06;103444.94;4941199;28;96815;-47
2021/12/18 04:03:49;;;;;;;4.10;3.70;;;16.10;98.70;;;16.40;49.73;103446.56;4946913;28;99978;-48
2021/12/18 04:06:15;;;;;;;4.50;3.53;;;16.30;98.30;;;16.39;50.04;103442.13;4951451;28;97345;-50
2021/12/18 04:08:41;;;;;;;4.37;3.90;;;16.30;97.60;;;16.38;49.69;103451.03;4940063;28;97085;-46
2021/12/18 04:11:07;;;;;;;4.47;4.07;;;16.20;97.70;;;16.34;49.68;103447.53;4933771;28;98393;-45
2021/12/18 04:13:33;;;;;;;15.43;13.47;;;16.10;97.10;;;16.26;49.85;103460.09;4952122;28;98497;-45
2021/12/18 04:15:59;;;;;;;7.10;5.90;;;15.80;96.70;;;16.13;50.12;103458.50;4952790;28;97398;-47
2021/12/18 04:18:25;;;;;;;6.03;5.43;;;15.60;97.20;;;16.04;50.85;103462.19;4958224;28;97073;-48
2021/12/18 04:20:51;;;;;;;10.87;9.30;;;15.40;97.80;;;15.90;51.14;103466.81;4952968;28;96676;-48
2021/12/18 04:23:17;;;;;;;6.03;5.33;;;15.20;98.30;;;15.82;51.18;103474.03;4957867;28;97011;-50
2021/12/18 04:25:43;;;;;;;4.33;3.80;;;15.10;99.10;;;15.75;51.47;103475.88;4932035;28;97080;-50
2021/12/18 04:28:09;;;;;;;4.93;4.10;;;15.00;99.90;;;15.70;51.73;103475.94;4938998;28;97170;-48
2021/12/18 04:30:36;;;;;;;3.83;3.50;;;15.00;99.90;;;15.73;51.61;103481.22;4930036;28;97890;-47
2021/12/18 04:33:02;;;;;;;4.40;4.00;;;15.10;99.90;;;15.77;51.65;103488.31;4934730;28;97388;-48
2021/12/18 04:35:28;;;;;;;4.47;3.70;;;15.30;99.90;;;15.84;51.67;103489.09;4926944;28;97509;-48
2021/12/18 04:37:55;;;;;;;4.07;3.63;;;15.40;99.80;;;15.94;51.30;103495.19;4933097;28;97594;-51
2021/12/18 04:40:26;;;;;;;4.20;3.63;;;15.60;99.30;;;15.99;50.92;103498.66;4939523;28;98612;-47
2021/12/18 04:42:54;;;;;;;3.90;3.60;;;15.70;99.20;;;16.10;50.69;103494.06;4950053;28;101168;-49
2021/12/18 04:45:20;;;;;;;4.93;3.80;;;15.80;99.20;;;16.24;50.38;103496.53;4954705;28;99887;-49
2021/12/18 04:47:46;;;;;;;4.43;3.90;;;16.10;97.90;;;16.23;50.18;103500.97;4937365;28;97176;-46
2021/12/18 04:50:12;;;;;;;4.60;4.03;;;16.00;98.20;;;16.32;50.13;103498.16;4938632;28;97484;-49
2021/12/18 04:52:37;;;;;;;4.63;3.97;;;16.20;98.50;;;16.35;49.71;103503.47;4928139;28;97169;-45
2021/12/18 04:55:05;;;;;;;4.00;3.60;;;16.20;98.20;;;16.42;49.97;103498.91;4929520;28;96751;-47
2021/12/18 04:57:31;;;;;;;4.90;4.40;;;16.30;98.10;;;16.45;49.54;103508.63;4935858;28;96802;-47
2021/12/18 04:59:59;;;;;;;4.87;4.43;;;16.30;97.40;;;16.47;49.59;103501.50;4934185;28;98460;-50
2021/12/18 05:02:37;;;;;;;8.50;7.23;;;16.40;97.40;;;16.38;49.65;103499.00;4945314;28;97427;-50
2021/12/18 05:05:04;;;;;;;4.93;4.13;;;16.10;97.20;;;16.30;49.96;103501.75;4918688;28;99437;-48
2021/12/18 05:07:31;;;;;;;4.90;4.17;;;16.00;97.90;;;16.24;50.10;103500.06;4931490;28;97510;-45
2021/12/18 05:09:57;;;;;;;5.40;4.90;;;15.90;98.80;;;16.15;49.74;103497.53;4933946;28;96571;-45
2021/12/18 05:12:23;;;;;;;7.97;6.77;;;15.80;97.80;;;16.10;50.23;103496.72;4954767;28;105667;-46
2021/12/18 05:14:49;;;;;;;18.57;14.77;;;15.70;97.10;;;16.04;49.83;103492.34;4938636;28;96912;-46
2021/12/18 05:17:15;;;;;;;5.40;4.73;;;15.50;96.80;;;15.99;50.76;103494.22;4932443;28;110009;-47
2021/12/18 05:19:40;;;;;;;5.90;4.87;;;15.50;99.50;;;16.04;50.41;103486.16;4931549;28;102371;-47
2021/12/18 05:22:06;;;;;;;5.23;4.73;;;15.60;98.60;;;16.00;50.43;103489.75;4939266;28;98204;-46
2021/12/18 05:24:32;;;;;;;5.00;4.50;;;15.60;97.80;;;16.03;50.52;103492.38;4939381;28;97278;-45
2021/12/18 05:26:58;;;;;;;5.90;5.30;;;15.60;99.20;;;16.07;50.31;103486.13;4937399;28;96927;-46
2021/12/18 05:29:25;;;;;;;4.73;4.27;;;15.70;97.80;;;16.10;50.13;103483.41;4921025;28;99831;-55
2021/12/18 05:31:51;;;;;;;5.37;4.73;;;15.80;98.60;;;16.13;50.30;103486.03;4942044;28;101250;-47
2021/12/18 05:34:25;;;;;;;5.53;4.83;;;15.90;98.40;;;16.14;49.96;103485.13;4956145;28;96848;-50
2021/12/18 05:39:29;;;;;;;5.80;5.20;;;15.90;98.20;;;16.15;50.20;103476.22;4953155;28;97306;-46
2021/12/18 05:41:56;;;;;;;5.87;4.80;;;15.90;98.60;;;16.10;50.12;103478.09;4926950;28;101113;-47
2021/12/18 05:44:26;;;;;;;5.10;4.53;;;15.80;97.80;;;16.11;50.13;103479.84;4943538;28;96959;-47
2021/12/18 05:46:52;;;;;;;5.03;4.53;;;15.80;98.70;;;16.09;50.15;103479.00;4951341;28;97580;-50
2021/12/18 05:49:19;;;;;;;6.17;4.43;;;15.70;97.90;;;16.09;50.20;103488.75;4933484;28;97030;-47
2021/12/18 05:51:46;;;;;;;5.20;4.70;;;15.70;98.80;;;16.10;50.46;103479.88;4935738;28;97233;-46
2021/12/18 05:54:13;;;;;;;5.63;5.13;;;15.80;97.80;;;16.06;50.26;103484.38;4935525;28;97734;-45
2021/12/18 05:56:40;;;;;;;5.20;4.70;;;15.70;98.20;;;16.07;50.56;103494.13;4950368;28;98980;-49
2021/12/18 05:59:06;;;;;;;4.73;4.30;;;15.70;98.70;;;16.08;50.47;103487.88;4932236;28;97132;-48
2021/12/18 06:01:33;;;;;;;5.40;4.50;;;15.70;98.30;;;16.08;50.58;103482.56;4931491;28;98337;-47
2021/12/18 06:03:59;;;;;;;8.20;6.90;;;15.70;98.50;;;16.05;50.56;103482.56;4940306;28;96996;-50
2021/12/18 06:06:26;;;;;;;5.07;4.57;;;15.60;97.90;;;15.99;50.42;103488.88;4927343;28;97007;-51
2021/12/18 06:08:52;;;;;;;6.80;5.10;;;15.50;98.50;;;15.95;50.67;103487.16;4942685;28;103663;-47
2021/12/18 06:11:22;;;;;;;4.70;4.30;;;15.50;98.40;;;15.92;51.01;103491.66;4947797;28;108031;-46
2021/12/18 06:13:51;;;;;;;6.90;5.13;;;15.40;99.20;;;15.90;51.02;103494.31;4944436;28;97300;-47
2021/12/18 06:16:19;;;;;;;4.63;4.23;;;15.40;98.70;;;15.84;50.92;103488.22;4939756;28;97786;-46
2021/12/18 06:18:47;;;;;;;5.63;4.57;;;15.30;99.40;;;15.85;51.21;103495.28;4950518;28;99507;-47
2021/12/18 06:21:15;;;;;;;6.50;5.50;;;15.30;99.50;;;15.85;51.15;103492.63;4952861;28;97079;-47
2021/12/18 06:23:47;;;;;;;6.00;4.53;;;15.30;98.90;;;15.89;51.18;103507.66;4926691;28;96916;-48
2021/12/18 06:26:14;;;;;;;5.70;5.07;;;15.40;99.50;;;15.92;51.16;103499.66;4963958;28;97333;-47
2021/12/18 06:28:40;;;;;;;5.60;5.07;;;15.50;99.00;;;15.91;50.93;103497.84;4928368;28;99500;-47
2021/12/18 06:31:07;;;;;;;6.27;5.23;;;15.40;98.50;;;15.88;50.98;103512.09;4943546;28;99436;-47
2021/12/18 06:33:33;;;;;;;5.53;4.50;;;15.30;99.10;;;15.87;50.98;103505.00;4949655;28;97767;-51
2021/12/18 06:35:59;;;;;;;6.03;5.43;;;15.30;99.50;;;15.88;51.08;103495.25;4940590;28;97090;-50
2021/12/18 06:38:25;;;;;;;6.83;5.43;;;15.30;98.70;;;15.84;51.11;103498.84;4939749;28;98880;-55
2021/12/18 06:40:51;;;;;;;6.33;5.73;;;15.30;98.50;;;15.75;51.19;103494.50;4950608;28;101253;-47
2021/12/18 06:43:18;;;;;;;7.00;5.67;;;15.10;99.20;;;15.72;51.44;103494.56;4960078;28;97466;-44
2021/12/18 06:45:44;;;;;;;5.10;4.60;;;15.10;99.80;;;15.73;51.50;103497.19;4931532;28;97184;-46
2021/12/18 06:48:10;;;;;;;6.23;5.63;;;15.10;99.70;;;15.74;51.36;103509.59;4938812;28;98838;-48
2021/12/18 06:50:37;;;;;;;5.47;4.90;;;15.20;99.30;;;15.74;51.29;103504.28;4932372;28;99803;-47
2021/12/18 06:53:04;;;;;;;11.00;8.63;;;15.20;99.50;;;15.73;51.34;103507.84;4949966;28;96953;-44
2021/12/18 06:55:31;;;;;;;5.17;4.67;;;15.20;98.60;;;15.72;51.27;103511.41;4928926;28;97449;-45
2021/12/18 06:57:57;;;;;;;6.47;4.97;;;15.20;99.80;;;15.74;51.46;103506.94;4941270;28;97853;-45
2021/12/18 07:00:25;;;;;;;5.33;4.83;;;15.30;99.80;;;15.79;51.27;103522.00;4918641;28;96839;-48
2021/12/18 07:02:52;;;;;;;6.73;5.53;;;15.30;99.70;;;15.80;51.33;103513.13;4954736;28;97877;-50
2021/12/18 07:05:19;;;;;;;5.17;4.67;;;15.30;98.40;;;15.75;51.43;103511.38;4945046;28;96892;-48
2021/12/18 07:07:45;;;;;;;6.13;5.00;;;15.20;99.40;;;15.77;51.36;103509.59;4952699;28;98961;-47
2021/12/18 07:10:14;;;;;;;5.50;5.00;;;15.30;99.70;;;15.89;50.77;103507.66;4966876;28;97083;-45
2021/12/18 07:12:41;;;;;;;5.17;4.67;;;15.50;99.40;;;15.94;50.75;103512.03;4946057;28;99907;-46
2021/12/18 07:15:09;;;;;;;6.03;5.43;;;15.70;98.90;;;15.96;50.58;103515.56;4965104;28;97060;-47
2021/12/18 07:17:36;;;;;;;14.33;10.17;;;15.70;98.20;;;15.95;50.33;103516.47;4915691;28;96854;-48
2021/12/18 07:20:04;;;;;;;20.83;15.83;;;15.60;97.60;;;15.89;50.45;103515.63;4939173;28;97422;-45
2021/12/18 07:22:30;;;;;;;5.63;5.03;;;15.40;97.80;;;15.80;51.17;103515.78;4934420;28;97067;-45
2021/12/18 07:24:56;;;;;;;5.73;5.13;;;15.30;99.10;;;15.79;51.09;103522.00;4943117;28;96808;-46
2021/12/18 07:27:22;;;;;;;17.13;13.10;;;15.30;99.80;;;15.81;50.41;103509.53;4962740;28;97456;-49
2021/12/18 07:29:48;;;;;;;5.63;4.87;;;15.40;97.60;;;15.80;50.92;103515.78;4951987;28;98202;-47
2021/12/18 07:32:14;;;;;;;6.03;5.40;;;15.30;99.70;;;15.77;50.93;103512.25;4939431;28;96921;-49
2021/12/18 07:34:40;;;;;;;6.30;5.20;;;15.40;99.20;;;15.84;51.16;103515.72;4934059;28;99523;-47
2021/12/18 07:37:06;;;;;;;6.30;5.00;;;15.40;99.40;;;15.94;50.74;103519.16;4940434;28;102365;-45
2021/12/18 07:39:32;;;;;;;5.93;5.20;;;15.60;99.00;;;16.05;50.44;103519.84;4930768;28;96910;-45
2021/12/18 07:41:57;;;;;;;5.60;4.50;;;15.90;98.40;;;16.12;50.15;103520.66;4941117;28;97464;-48
2021/12/18 07:44:23;;;;;;;5.00;4.50;;;16.00;98.50;;;16.12;50.23;103516.22;4935044;28;96955;-45
2021/12/18 07:46:49;;;;;;;5.53;4.67;;;15.90;98.40;;;16.16;49.98;103517.94;4928423;28;98400;-46
2021/12/18 07:49:15;;;;;;;5.23;4.73;;;16.00;97.90;;;16.17;49.84;103519.69;4951194;28;99191;-48
2021/12/18 07:51:41;;;;;;;13.90;10.93;;;15.90;98.40;;;16.18;49.67;103512.59;4934232;28;106758;-47
2021/12/18 07:54:07;;;;;;;5.43;4.73;;;15.90;96.90;;;16.18;49.90;103508.13;4946534;28;108971;-45
2021/12/18 07:56:35;;;;;;;5.87;4.93;;;15.90;98.50;;;16.24;49.69;103510.72;4932535;28;97021;-49
2021/12/18 07:59:02;;;;;;;6.57;4.97;;;16.00;98.10;;;16.24;50.00;103520.50;4957114;28;97027;-48
2021/12/18 08:01:28;;;;;;;6.23;4.70;;;16.00;98.00;;;16.20;49.87;103511.69;4946762;28;97192;-48
2021/12/18 08:03:54;;;;;;;5.10;4.60;;;16.00;98.20;;;16.26;49.83;103508.91;4945319;28;96795;-47
2021/12/18 08:06:20;;;;;;;6.53;5.87;;;16.00;98.50;;;16.27;49.87;103513.34;4959836;28;97943;-45
2021/12/18 08:08:47;;;;;;;7.67;5.93;;;16.00;97.50;;;16.21;50.13;103505.47;4939086;28;97066;-45
2021/12/18 08:11:14;;;;;;;23.70;17.90;;;15.90;97.60;;;16.16;49.79;103501.94;4960506;28;97022;-51
2021/12/18 08:13:40;;;;;;;7.13;5.20;;;15.80;97.00;;;16.12;50.42;103502.91;4935729;28;97506;-51
2021/12/18 08:16:06;;;;;;;5.50;4.93;;;15.70;98.90;;;16.13;50.29;103499.34;4947799;28;99856;-53
2021/12/18 08:18:32;;;;;;;5.33;4.83;;;15.70;98.40;;;16.21;49.93;103508.13;4950229;28;98091;-46
2021/12/18 08:20:58;;;;;;;6.23;4.80;;;15.90;98.70;;;16.26;49.91;103500.94;4943727;28;96716;-46
2021/12/18 08:23:24;;;;;;;7.73;5.33;;;16.00;98.40;;;16.26;50.05;103503.59;4953770;28;97094;-49
2021/12/18 08:25:50;;;;;;;5.80;5.20;;;16.00;97.40;;;16.24;50.14;103505.41;4954508;28;97305;-49
2021/12/18 08:28:16;;;;;;;11.90;8.77;;;15.90;98.40;;;16.16;49.94;103506.41;4940646;28;99750;-47
2021/12/18 08:30:43;;;;;;;7.20;6.03;;;15.70;97.30;;;16.06;50.17;103505.66;4953566;28;97714;-46
2021/12/18 08:33:09;;;;;;;9.10;7.40;;;15.50;98.70;;;15.98;50.49;103502.22;4943153;28;96794;-51
2021/12/18 08:35:36;;;;;;;5.70;5.10;;;15.30;98.40;;;15.96;50.52;103502.25;4947322;28;98315;-50
2021/12/18 08:38:04;;;;;;;11.80;8.80;;;15.30;99.60;;;15.98;50.64;103512.88;4938906;28;101091;-45
2021/12/18 08:40:31;;;;;;;8.40;6.67;;;15.50;98.40;;;15.99;50.71;103510.19;4933384;28;99559;-47
2021/12/18 08:42:57;;;;;;;8.20;7.03;;;15.50;98.20;;;15.95;50.88;103502.25;4959809;28;97109;-50
2021/12/18 08:45:24;;;;;;;6.67;5.30;;;15.40;98.40;;;15.91;51.01;103500.53;4917238;28;98454;-48
2021/12/18 08:47:51;;;;;;;6.60;5.60;;;15.30;99.30;;;15.88;51.01;103500.56;4935324;28;104117;-45
2021/12/18 08:50:18;;;;;;;6.90;6.20;;;15.30;99.40;;;15.91;50.95;103497.84;4935647;28;97002;-50
2021/12/18 08:52:50;;;;;;;7.77;6.33;;;15.40;99.00;;;15.91;50.94;103495.19;4935860;28;98517;-50
2021/12/18 08:55:18;;;;;;;6.83;6.10;;;15.40;98.50;;;15.90;50.87;103510.28;4935514;28;97055;-48
2021/12/18 08:57:44;;;;;;;7.23;5.77;;;15.40;99.10;;;15.99;50.65;103503.97;4955346;28;96850;-49
2021/12/18 09:00:16;;;;;;;7.17;5.30;;;15.60;99.20;;;16.04;50.15;103499.47;4954658;28;97235;-47
2021/12/18 09:02:45;;;;;;;6.93;6.23;;;15.70;98.70;;;16.06;50.10;103500.34;4950379;28;97310;-46
2021/12/18 09:05:11;;;;;;;7.63;6.03;;;15.70;98.00;;;16.07;50.51;103496.78;4948635;28;97832;-45
2021/12/18 09:07:37;;;;;;;13.33;10.30;;;15.70;98.40;;;16.04;50.34;103496.78;4930532;28;99211;-52
2021/12/18 09:10:06;;;;;;;7.57;6.10;;;15.60;97.30;;;16.03;50.42;103503.03;4938757;28;96908;-47
2021/12/18 09:12:33;;;;;;;5.60;5.00;;;15.60;98.70;;;16.02;50.70;103501.25;4932366;28;96975;-46
2021/12/18 09:14:59;;;;;;;7.57;6.30;;;15.50;99.10;;;16.01;50.31;103505.72;4957893;28;97461;-48
2021/12/18 09:17:25;;;;;;;6.90;5.10;;;15.50;98.20;;;16.03;50.57;103505.69;4932539;28;99584;-53
2021/12/18 09:19:51;;;;;;;6.23;5.37;;;15.60;99.10;;;16.05;50.25;103509.19;4931467;28;97045;-48
2021/12/18 09:22:18;;;;;;;7.43;5.80;;;15.60;98.60;;;16.05;50.54;103519.84;4938292;28;97479;-49
2021/12/18 09:24:45;;;;;;;6.10;5.23;;;15.60;98.70;;;16.10;50.36;103512.72;4946458;28;97605;-52
2021/12/18 09:27:11;;;;;;;10.97;8.60;;;15.70;98.90;;;16.09;50.19;103518.94;4918016;28;101728;-48
2021/12/18 09:29:37;;;;;;;23.47;18.83;;;15.70;98.10;;;16.05;49.73;103519.84;4926424;28;99446;-48
2021/12/18 09:32:03;;;;;;;16.17;13.03;;;15.60;97.10;;;15.97;50.37;103519.09;4933058;28;97625;-52
2021/12/18 09:34:30;;;;;;;5.87;5.20;;;15.30;97.90;;;15.94;50.97;103521.81;4909247;28;99740;-48
2021/12/18 09:36:57;;;;;;;7.80;5.63;;;15.30;99.60;;;15.93;50.84;103522.72;4932570;28;97190;-49
2021/12/18 09:39:23;;;;;;;6.33;5.13;;;15.40;99.40;;;16.00;50.55;103516.38;4908012;28;98533;-50
2021/12/18 09:41:51;;;;;;;12.13;9.33;;;15.60;99.00;;;16.03;50.48;103519.00;4903516;28;99180;-52
2021/12/18 09:44:34;;;;;;;6.53;5.40;;;15.70;98.10;;;16.04;50.44;103518.09;4933009;28;98888;-46
2021/12/18 09:47:02;;;;;;;5.37;4.87;;;15.60;99.00;;;16.13;50.25;103517.97;4906967;28;104288;-51
2021/12/18 09:49:30;;;;;;;6.73;5.20;;;15.80;98.90;;;16.25;49.91;103512.50;4910189;28;98581;-49
2021/12/18 09:51:56;;;;;;;26.60;20.47;;;16.00;98.40;;;15.81;49.28;103512.22;4928919;28;98445;-51
2021/12/18 09:54:23;;;;;;;7.40;5.90;;;15.50;96.90;;;16.01;50.45;103512.81;4915211;28;98738;-52
2021/12/18 09:56:50;;;;;;;21.83;15.87;;;15.60;99.20;;;16.02;50.33;103515.47;4909239;28;97230;-51
2021/12/18 09:59:16;;;;;;;23.17;18.13;;;15.70;97.70;;;15.97;49.75;103511.09;4909678;28;98187;-50
2021/12/18 10:01:42;;;;;;;11.67;9.37;;;15.60;97.40;;;15.87;50.53;103504.13;4929152;28;98904;-51
2021/12/18 10:04:35;;;;;;;7.43;6.30;;;15.30;98.10;;;15.89;50.89;103512.97;4913142;28;98424;-53
2021/12/18 10:07:23;;;;;;;7.80;6.40;;;15.40;99.20;;;15.83;50.89;103507.75;4927743;28;101542;-48
2021/12/18 10:09:57;;;;;;;9.80;7.07;;;15.30;99.50;;;15.89;50.59;103497.00;4921229;28;97798;-47
2021/12/18 10:12:31;;;;;;;7.33;6.53;;;15.50;98.10;;;15.88;50.95;103496.13;4911089;28;98954;-47
2021/12/18 10:14:59;;;;;;;8.20;6.70;;;15.40;99.30;;;15.83;51.05;103492.66;4909708;28;101893;-51
2021/12/18 10:17:39;;;;;;;7.07;6.37;;;15.30;99.20;;;15.77;50.83;103493.63;4910425;28;99072;-50
2021/12/18 10:20:11;;;;;;;10.23;7.90;;;15.20;98.80;;;15.75;50.91;103489.19;4911042;28;99487;-48
2021/12/18 10:22:53;;;;;;;8.20;6.70;;;15.20;98.90;;;15.74;51.30;103482.09;4928201;28;96955;-49
2021/12/18 10:25:37;;;;;;;9.87;8.87;;;15.20;99.40;;;15.71;51.08;103480.38;4930066;28;97869;-47
2021/12/18 10:28:16;;;;;;;15.97;13.13;;;15.10;98.80;;;15.71;50.99;103469.72;4913096;28;101733;-47
2021/12/18 10:30:55;;;;;;;15.73;13.13;;;15.10;98.30;;;15.69;51.27;103474.19;4898151;28;101529;-49
2021/12/18 10:33:28;;;;;;;11.83;9.67;;;15.10;99.00;;;15.69;51.26;103474.19;4929950;28;98040;-52
2021/12/18 10:35:58;;;;;;;10.43;8.57;;;15.10;98.80;;;15.61;51.41;103470.72;4929054;28;100718;-45
2021/12/18 10:38:55;;;;;;;17.43;13.20;;;15.00;98.40;;;15.56;51.22;103461.91;4917402;28;99403;-49
2021/12/18 10:41:31;;;;;;;16.50;13.63;;;14.90;99.10;;;15.37;50.10;103466.56;4930055;28;98960;-45
2021/12/18 10:44:09;;;;;;;21.60;16.77;;;14.60;98.70;;;15.25;51.69;103471.13;4927139;28;97779;-46
2021/12/18 10:46:39;;;;;;;6.30;5.70;;;14.40;99.30;;;15.24;52.39;103467.59;4909824;28;101139;-47
2021/12/18 10:49:11;;;;;;;6.50;5.83;;;14.40;99.90;;;15.32;52.00;103457.75;4909658;28;99122;-46
2021/12/18 10:51:39;;;;;;;8.63;6.10;;;14.70;99.90;;;15.42;51.87;103447.88;4910066;28;99453;-50
2021/12/18 10:54:13;;;;;;;10.03;8.03;;;14.90;99.90;;;15.50;51.56;103446.03;4924304;28;97768;-46
2021/12/18 10:56:43;;;;;;;12.93;10.43;;;15.10;98.80;;;15.50;51.91;103450.47;4901603;28;99682;-44
2021/12/18 10:59:25;;;;;;;10.80;9.03;;;15.00;99.20;;;15.44;51.56;103440.75;4914347;28;98067;-48
2021/12/18 11:02:15;;;;;;;15.10;9.00;;;14.90;98.80;;;15.41;51.81;103443.47;4928126;28;98774;-48
2021/12/18 11:04:44;;;;;;;6.20;5.57;;;14.70;99.20;;;15.35;51.90;103451.53;4915986;28;99755;-51
2021/12/18 11:07:33;;;;;;;6.60;5.37;;;14.70;99.90;;;15.38;52.13;103443.50;4911498;28;99531;-45